createdAt,value
2022-10-28T00:01:51.304Z,16.80
2022-10-28T00:04:17.659Z,16.79
2022-10-28T00:06:43.989Z,16.79
2022-10-28T00:09:12.399Z,16.76
2022-10-28T00:11:38.800Z,16.74
2022-10-28T00:14:05.886Z,16.72
2022-10-28T00:16:33.303Z,16.67
2022-10-28T00:19:00.252Z,16.64
2022-10-28T00:21:27.733Z,16.60
2022-10-28T00:23:54.177Z,16.58
2022-10-28T00:26:22.578Z,16.56
2022-10-28T00:28:50.245Z,16.53
2022-10-28T00:31:18.037Z,16.52
2022-10-28T00:33:44.496Z,16.49
2022-10-28T00:36:11.958Z,16.46
2022-10-28T00:38:38.563Z,16.44
2022-10-28T00:41:05.092Z,16.42
2022-10-28T00:43:36.477Z,16.39
2022-10-28T00:46:03.556Z,16.37
2022-10-28T00:48:30.042Z,16.34
2022-10-28T00:50:56.470Z,16.34
2022-10-28T00:53:24.986Z,16.34
2022-10-28T00:55:51.617Z,16.33
2022-10-28T00:58:19.085Z,16.32
2022-10-28T01:00:46.735Z,16.32
2022-10-28T01:03:13.175Z,16.31
2022-10-28T01:05:41.160Z,16.30
2022-10-28T01:08:07.584Z,16.28
2022-10-28T01:10:42.204Z,16.28
2022-10-28T01:13:11.384Z,16.26
2022-10-28T01:15:41.445Z,16.21
2022-10-28T01:18:14.311Z,16.20
2022-10-28T01:20:52.027Z,16.18
2022-10-28T01:23:21.921Z,16.17
2022-10-28T01:26:06.199Z,16.16
2022-10-28T01:28:40.989Z,16.14
2022-10-28T01:31:17.223Z,16.12
2022-10-28T01:33:49.053Z,16.09
2022-10-28T01:36:17.862Z,16.07
2022-10-28T01:38:49.878Z,16.05
2022-10-28T01:41:17.475Z,16.01
2022-10-28T01:43:47.050Z,15.98
2022-10-28T01:46:17.138Z,15.97
2022-10-28T01:48:45.246Z,15.95
2022-10-28T01:51:13.634Z,15.95
2022-10-28T01:53:40.193Z,15.94
2022-10-28T01:56:08.158Z,15.93
2022-10-28T01:58:36.724Z,15.93
2022-10-28T02:01:05.414Z,15.92
2022-10-28T02:03:33.708Z,15.91
2022-10-28T02:06:02.704Z,15.89
2022-10-28T02:08:35.226Z,15.86
2022-10-28T02:11:12.378Z,15.83
2022-10-28T02:13:42.140Z,15.78
2022-10-28T02:16:13.413Z,15.75
2022-10-28T02:18:43.783Z,15.71
2022-10-28T02:21:13.606Z,15.68
2022-10-28T02:23:43.407Z,15.64
2022-10-28T02:26:14.773Z,15.64
2022-10-28T02:28:43.072Z,15.60
2022-10-28T02:31:15.989Z,15.61
2022-10-28T02:33:44.305Z,15.57
2022-10-28T02:36:12.299Z,15.53
2022-10-28T02:38:39.821Z,15.48
2022-10-28T02:41:08.688Z,15.45
2022-10-28T02:43:36.911Z,15.42
2022-10-28T02:46:04.717Z,15.42
2022-10-28T02:48:33.608Z,15.42
2022-10-28T02:51:07.361Z,15.41
2022-10-28T02:53:40.000Z,15.40
2022-10-28T02:56:08.248Z,15.40
2022-10-28T02:58:37.958Z,15.41
2022-10-28T03:01:04.286Z,15.41
2022-10-28T03:03:30.634Z,15.42
2022-10-28T03:05:56.896Z,15.42
2022-10-28T03:08:24.515Z,15.41
2022-10-28T03:10:51.102Z,15.38
2022-10-28T03:13:17.406Z,15.36
2022-10-28T03:15:43.681Z,15.33
2022-10-28T03:18:09.948Z,15.30
2022-10-28T03:20:36.256Z,15.28
2022-10-28T03:23:02.552Z,15.27
2022-10-28T03:25:30.176Z,15.26
2022-10-28T03:27:56.499Z,15.27
2022-10-28T03:30:22.924Z,15.25
2022-10-28T03:32:49.215Z,15.23
2022-10-28T03:35:15.706Z,15.21
2022-10-28T03:37:42.022Z,15.21
2022-10-28T03:40:08.652Z,15.18
2022-10-28T03:42:38.864Z,15.16
2022-10-28T03:45:07.595Z,15.13
2022-10-28T03:47:34.336Z,15.14
2022-10-28T03:50:00.654Z,15.15
2022-10-28T03:52:27.109Z,15.15
2022-10-28T03:54:53.387Z,15.16
2022-10-28T03:57:19.671Z,15.15
2022-10-28T03:59:47.291Z,15.16
2022-10-28T04:02:13.646Z,15.16
2022-10-28T04:04:40.022Z,15.15
2022-10-28T04:07:06.435Z,15.16
2022-10-28T04:09:39.943Z,15.18
2022-10-28T04:12:06.742Z,15.21
2022-10-28T04:14:33.042Z,15.22
2022-10-28T04:17:00.718Z,15.21
2022-10-28T04:19:27.339Z,15.22
2022-10-28T04:21:53.697Z,15.22
2022-10-28T04:24:19.991Z,15.23
2022-10-28T04:26:46.283Z,15.24
2022-10-28T04:29:12.560Z,15.23
2022-10-28T04:31:38.867Z,15.22
2022-10-28T04:34:06.463Z,15.22
2022-10-28T04:36:32.749Z,15.18
2022-10-28T04:38:59.485Z,15.16
2022-10-28T04:41:26.146Z,15.15
2022-10-28T04:43:52.464Z,15.13
2022-10-28T04:46:18.752Z,15.13
2022-10-28T04:48:46.614Z,15.12
2022-10-28T04:51:14.527Z,15.12
2022-10-28T04:53:40.814Z,15.11
2022-10-28T04:56:08.304Z,15.11
2022-10-28T04:58:34.585Z,15.09
2022-10-28T05:01:04.609Z,15.08
2022-10-28T05:03:30.933Z,15.06
2022-10-28T05:05:57.239Z,15.05
2022-10-28T05:08:24.912Z,15.06
2022-10-28T05:10:51.507Z,15.05
2022-10-28T05:13:17.881Z,15.04
2022-10-28T05:15:44.154Z,15.03
2022-10-28T05:18:10.434Z,15.05
2022-10-28T05:20:36.732Z,15.05
2022-10-28T05:23:03.005Z,15.05
2022-10-28T05:25:30.664Z,15.06
2022-10-28T05:27:57.778Z,15.07
2022-10-28T05:30:24.055Z,15.06
2022-10-28T05:32:52.928Z,15.06
2022-10-28T05:35:21.561Z,15.06
2022-10-28T05:37:47.850Z,15.07
2022-10-28T05:40:14.168Z,15.07
2022-10-28T05:42:42.333Z,15.10
2022-10-28T05:45:09.253Z,15.10
2022-10-28T05:47:37.846Z,15.13
2022-10-28T05:50:06.836Z,15.14
2022-10-28T05:52:33.113Z,15.16
2022-10-28T05:54:59.416Z,15.13
2022-10-28T05:57:25.722Z,15.15
2022-10-28T05:59:53.352Z,15.13
2022-10-28T06:02:19.658Z,15.13
2022-10-28T06:04:46.178Z,15.13
2022-10-28T06:07:12.457Z,15.14
2022-10-28T06:09:38.759Z,15.15
2022-10-28T06:12:04.384Z,15.14
2022-10-28T06:14:30.666Z,15.13
2022-10-28T06:16:58.278Z,15.13
2022-10-28T06:19:24.621Z,15.12
2022-10-28T06:21:50.913Z,15.13
2022-10-28T06:24:17.185Z,15.11
2022-10-28T06:26:43.507Z,15.12
2022-10-28T06:29:09.936Z,15.14
2022-10-28T06:31:37.347Z,15.15
2022-10-28T06:34:04.993Z,15.16
2022-10-28T06:36:31.324Z,15.18
2022-10-28T06:38:57.761Z,15.18
2022-10-28T06:41:24.061Z,15.19
2022-10-28T06:43:50.366Z,15.20
2022-10-28T06:46:16.714Z,15.20
2022-10-28T06:48:44.547Z,15.21
2022-10-28T06:51:12.160Z,15.22
2022-10-28T06:53:38.436Z,15.23
2022-10-28T06:56:05.083Z,15.25
2022-10-28T06:58:31.360Z,15.27
2022-10-28T07:01:02.439Z,15.32
2022-10-28T07:03:28.772Z,15.35
2022-10-28T07:05:55.043Z,15.39
2022-10-28T07:08:22.677Z,15.41
2022-10-28T07:10:55.505Z,15.44
2022-10-28T07:13:21.867Z,15.46
2022-10-28T07:15:50.649Z,15.53
2022-10-28T07:18:16.922Z,15.57
2022-10-28T07:20:43.217Z,15.61
2022-10-28T07:23:09.493Z,15.65
2022-10-28T07:25:37.226Z,15.71
2022-10-28T07:28:03.838Z,15.75
2022-10-28T07:30:30.259Z,15.79
2022-10-28T07:32:56.793Z,15.83
2022-10-28T07:35:23.306Z,15.88
2022-10-28T07:37:49.714Z,15.92
2022-10-28T07:40:16.014Z,15.97
2022-10-28T07:42:43.645Z,16.02
2022-10-28T07:45:09.954Z,16.07
2022-10-28T07:47:36.233Z,16.12
2022-10-28T07:50:03.002Z,16.18
2022-10-28T07:52:29.295Z,16.28
2022-10-28T07:54:55.601Z,16.35
2022-10-28T07:57:21.920Z,16.46
2022-10-28T07:59:49.555Z,16.55
2022-10-28T08:02:17.214Z,16.64
2022-10-28T08:04:43.517Z,16.73
2022-10-28T08:07:09.837Z,16.85
2022-10-28T08:09:36.130Z,16.96
2022-10-28T08:12:02.430Z,17.07
2022-10-28T08:14:28.727Z,17.19
2022-10-28T08:16:56.389Z,17.27
2022-10-28T08:19:22.689Z,17.36
2022-10-28T08:21:48.958Z,17.48
2022-10-28T08:24:15.330Z,17.60
2022-10-28T08:26:41.637Z,17.70
2022-10-28T08:29:09.246Z,17.80
2022-10-28T08:31:35.540Z,17.89
2022-10-28T08:34:03.168Z,18.01
2022-10-28T08:36:29.470Z,18.11
2022-10-28T08:38:55.780Z,18.18
2022-10-28T08:41:29.536Z,18.21
2022-10-28T08:44:04.978Z,18.22
2022-10-28T08:46:42.163Z,18.21
2022-10-28T08:49:11.089Z,18.20
2022-10-28T08:51:40.781Z,18.24
2022-10-28T08:54:12.932Z,18.29
2022-10-28T08:56:40.993Z,18.39
2022-10-28T08:59:10.640Z,18.49
2022-10-28T09:01:39.340Z,18.54
2022-10-28T09:04:10.874Z,18.56
2022-10-28T09:06:38.496Z,18.58
2022-10-28T09:09:04.832Z,18.57
2022-10-28T09:11:37.927Z,18.62
2022-10-28T09:14:11.739Z,18.66
2022-10-28T09:16:45.454Z,18.72
2022-10-28T09:19:14.968Z,18.77
2022-10-28T09:21:47.024Z,18.82
2022-10-28T09:24:16.643Z,18.87
2022-10-28T09:26:47.514Z,18.91
2022-10-28T09:29:28.525Z,18.96
2022-10-28T09:31:58.004Z,18.98
2022-10-28T09:34:29.471Z,19.01
2022-10-28T09:37:00.997Z,19.07
2022-10-28T09:39:29.529Z,19.14
2022-10-28T09:41:58.267Z,19.20
2022-10-28T09:44:28.427Z,19.31
2022-10-28T09:46:56.994Z,19.44
2022-10-28T09:49:25.714Z,19.61
2022-10-28T09:51:55.496Z,19.76
2022-10-28T09:54:28.102Z,19.83
2022-10-28T09:56:54.517Z,19.84
2022-10-28T09:59:20.836Z,19.81
2022-10-28T10:01:47.216Z,19.87
2022-10-28T10:04:17.477Z,19.95
2022-10-28T10:06:45.391Z,20.07
2022-10-28T10:09:15.973Z,20.10
2022-10-28T10:11:45.042Z,20.17
2022-10-28T10:14:13.129Z,20.26
2022-10-28T10:16:42.477Z,20.35
2022-10-28T10:19:09.574Z,20.43
2022-10-28T10:21:43.260Z,20.49
2022-10-28T10:24:21.553Z,20.54
2022-10-28T10:26:49.290Z,20.62
2022-10-28T10:29:15.671Z,20.71
2022-10-28T10:31:42.073Z,20.77
2022-10-28T10:34:20.599Z,20.77
2022-10-28T10:36:48.921Z,20.75
2022-10-28T10:39:19.200Z,20.75
2022-10-28T10:41:45.521Z,20.77
2022-10-28T10:44:30.913Z,20.82
2022-10-28T10:47:19.735Z,20.88
2022-10-28T10:49:46.050Z,20.94
2022-10-28T10:52:17.300Z,21.00
2022-10-28T10:54:47.268Z,21.04
2022-10-28T10:57:16.938Z,21.06
2022-10-28T10:59:46.737Z,21.11
2022-10-28T11:02:20.861Z,21.13
2022-10-28T11:04:50.671Z,21.16
2022-10-28T11:07:17.145Z,21.19
2022-10-28T11:09:47.279Z,21.21
2022-10-28T11:12:14.730Z,21.21
2022-10-28T11:14:53.071Z,21.23
2022-10-28T11:17:23.898Z,21.27
2022-10-28T11:19:52.093Z,21.30
2022-10-28T11:22:26.441Z,21.32
2022-10-28T11:25:01.786Z,21.33
2022-10-28T11:27:33.958Z,21.35
2022-10-28T11:30:00.854Z,21.41
2022-10-28T11:32:38.282Z,21.44
2022-10-28T11:35:28.565Z,21.47
2022-10-28T11:38:01.412Z,21.54
2022-10-28T11:40:30.193Z,21.56
2022-10-28T11:43:02.637Z,21.60
2022-10-28T11:45:31.900Z,21.65
2022-10-28T11:48:06.819Z,21.69
2022-10-28T11:50:35.178Z,21.71
2022-10-28T11:53:11.839Z,21.74
2022-10-28T11:55:39.584Z,21.75
2022-10-28T11:58:14.979Z,21.74
2022-10-28T12:00:47.075Z,21.75
2022-10-28T12:03:31.154Z,21.76
2022-10-28T12:06:03.930Z,21.78
2022-10-28T12:08:36.993Z,21.80
2022-10-28T12:11:10.443Z,21.82
2022-10-28T12:13:40.020Z,21.82
2022-10-28T12:16:09.810Z,21.81
2022-10-28T12:18:40.544Z,21.82
2022-10-28T12:21:14.286Z,21.80
2022-10-28T12:23:41.404Z,21.80
2022-10-28T12:26:09.391Z,21.82
2022-10-28T12:28:40.784Z,21.83
2022-10-28T12:31:09.668Z,21.83
2022-10-28T12:33:39.438Z,21.84
2022-10-28T12:36:19.675Z,21.86
2022-10-28T12:38:50.677Z,21.93
2022-10-28T12:41:19.073Z,21.94
2022-10-28T12:43:48.792Z,21.94
2022-10-28T12:46:18.867Z,21.94
2022-10-28T12:48:48.409Z,21.96
2022-10-28T12:51:16.470Z,21.97
2022-10-28T12:53:47.801Z,22.00
2022-10-28T12:56:15.921Z,21.98
2022-10-28T12:58:47.783Z,22.00
2022-10-28T13:01:15.625Z,21.97
2022-10-28T13:03:42.166Z,21.95
2022-10-28T13:11:42.293Z,21.92
2022-10-28T13:14:16.337Z,21.90
2022-10-28T13:16:52.552Z,21.84
2022-10-28T13:19:33.478Z,21.81
2022-10-28T13:22:09.819Z,21.85
2022-10-28T13:24:42.124Z,21.78
2022-10-28T13:27:11.931Z,21.76
2022-10-28T13:29:39.731Z,21.79
2022-10-28T13:32:06.358Z,21.77
2022-10-28T13:34:33.706Z,21.76
2022-10-28T13:37:01.787Z,21.74
2022-10-28T13:39:42.367Z,21.69
2022-10-28T13:42:27.184Z,21.68
2022-10-28T13:44:54.356Z,21.65
2022-10-28T13:47:25.364Z,21.63
2022-10-28T13:50:14.488Z,21.62
2022-10-28T13:52:41.711Z,21.60
2022-10-28T13:55:22.874Z,21.60
2022-10-28T13:57:50.885Z,21.64
2022-10-28T14:00:32.128Z,21.68
2022-10-28T14:03:00.053Z,21.74
2022-10-28T14:05:46.933Z,21.75
2022-10-28T14:08:18.259Z,21.77
2022-10-28T14:10:56.525Z,21.81
2022-10-28T14:13:23.157Z,21.82
2022-10-28T14:15:50.007Z,21.79
2022-10-28T14:21:07.768Z,21.83
2022-10-28T14:23:50.435Z,21.84
2022-10-28T14:26:18.108Z,21.81
2022-10-28T14:28:53.974Z,21.82
2022-10-28T14:31:33.246Z,21.80
2022-10-28T14:34:18.204Z,21.73
2022-10-28T14:36:52.046Z,21.68
2022-10-28T14:39:35.436Z,21.63
2022-10-28T14:42:14.934Z,21.57
2022-10-28T14:44:50.244Z,21.52
2022-10-28T14:47:29.817Z,21.47
2022-10-28T14:49:58.664Z,21.43
2022-10-28T14:52:25.713Z,21.41
2022-10-28T14:54:53.763Z,21.38
2022-10-28T14:57:29.443Z,21.37
2022-10-28T15:00:01.833Z,21.36
2022-10-28T15:02:29.630Z,21.34
2022-10-28T15:05:01.285Z,21.33
2022-10-28T15:07:27.652Z,21.29
2022-10-28T15:09:54.630Z,21.23
2022-10-28T15:12:23.757Z,21.17
2022-10-28T15:14:50.855Z,21.08
2022-10-28T15:17:18.283Z,20.99
2022-10-28T15:19:45.477Z,20.90
2022-10-28T15:22:13.143Z,20.81
2022-10-28T15:24:43.077Z,20.73
2022-10-28T15:27:12.661Z,20.66
2022-10-28T15:29:41.152Z,20.62
2022-10-28T15:32:10.378Z,20.55
2022-10-28T15:34:36.709Z,20.51
2022-10-28T15:37:03.046Z,20.45
2022-10-28T15:39:29.391Z,20.38
2022-10-28T15:41:55.736Z,20.32
2022-10-28T15:44:24.063Z,20.26
2022-10-28T15:46:52.410Z,20.21
2022-10-28T15:49:31.239Z,20.16
2022-10-28T15:52:16.419Z,20.11
2022-10-28T15:54:43.218Z,20.05
2022-10-28T15:57:20.510Z,20.01
2022-10-28T15:59:46.913Z,19.97
2022-10-28T16:02:28.244Z,19.91
2022-10-28T16:04:56.013Z,19.85
2022-10-28T16:07:22.344Z,19.80
2022-10-28T16:09:49.038Z,19.75
2022-10-28T16:12:16.265Z,19.70
2022-10-28T16:14:43.595Z,19.63
2022-10-28T16:17:13.460Z,19.58
2022-10-28T16:19:41.354Z,19.52
2022-10-28T16:22:10.934Z,19.46
2022-10-28T16:24:37.254Z,19.36
2022-10-28T16:27:16.969Z,19.29
2022-10-28T16:29:43.286Z,19.20
2022-10-28T16:32:11.457Z,19.12
2022-10-28T16:34:37.930Z,19.06
2022-10-28T16:37:13.245Z,19.01
2022-10-28T16:39:40.980Z,18.96
2022-10-28T16:42:08.138Z,18.91
2022-10-28T16:44:34.476Z,18.87
2022-10-28T16:47:00.796Z,18.81
2022-10-28T16:49:27.111Z,18.76
2022-10-28T16:51:53.433Z,18.71
2022-10-28T16:54:19.751Z,18.68
2022-10-28T16:56:47.461Z,18.66
2022-10-28T16:59:13.839Z,18.63
2022-10-28T17:01:40.333Z,18.62
2022-10-28T17:04:09.029Z,18.59
2022-10-28T17:06:35.593Z,18.57
2022-10-28T17:09:03.604Z,18.55
2022-10-28T17:13:59.133Z,18.50
2022-10-28T17:16:25.520Z,18.46
2022-10-28T17:18:51.987Z,18.42
2022-10-28T17:21:18.675Z,18.38
2022-10-28T17:23:45.440Z,18.35
2022-10-28T17:26:11.908Z,18.31
2022-10-28T17:28:38.356Z,18.29
2022-10-28T17:31:07.032Z,18.26
2022-10-28T17:33:34.177Z,18.24
2022-10-28T17:36:00.778Z,18.19
2022-10-28T17:38:27.132Z,18.16
2022-10-28T17:40:53.781Z,18.12
2022-10-28T17:43:20.166Z,18.09
2022-10-28T17:45:46.794Z,18.06
2022-10-28T17:48:14.557Z,18.03
2022-10-28T17:50:40.913Z,18.01
2022-10-28T17:53:07.472Z,17.99
2022-10-28T17:55:33.932Z,17.96
2022-10-28T17:58:00.357Z,17.94
2022-10-28T18:00:27.602Z,17.90
2022-10-28T18:02:54.996Z,17.87
2022-10-28T18:05:22.781Z,17.82
2022-10-28T18:07:49.111Z,17.76
2022-10-28T18:10:15.568Z,17.72
2022-10-28T18:12:41.959Z,17.70
2022-10-28T18:15:08.676Z,17.68
2022-10-28T18:17:35.039Z,17.66
2022-10-28T18:20:01.393Z,17.66
2022-10-28T18:22:29.178Z,17.67
2022-10-28T18:24:55.589Z,17.66
2022-10-28T18:27:22.166Z,17.66
2022-10-28T18:29:48.558Z,17.66
2022-10-28T18:32:15.476Z,17.66
2022-10-28T18:34:41.891Z,17.65
2022-10-28T18:37:08.378Z,17.65
2022-10-28T18:39:36.074Z,17.63
2022-10-28T18:42:02.505Z,17.60
2022-10-28T18:44:28.903Z,17.60
2022-10-28T18:46:55.261Z,17.61
2022-10-28T18:49:21.653Z,17.62
2022-10-28T18:51:50.466Z,17.61
2022-10-28T18:54:16.870Z,17.61
2022-10-28T18:56:47.707Z,17.58
2022-10-28T18:59:15.073Z,17.52
2022-10-28T19:01:41.527Z,17.47
2022-10-28T19:04:07.895Z,17.43
2022-10-28T19:06:34.338Z,17.41
2022-10-28T19:09:01.703Z,17.33
2022-10-28T19:11:29.153Z,17.30
2022-10-28T19:13:57.520Z,17.27
2022-10-28T19:16:24.094Z,17.25
2022-10-28T19:18:53.470Z,17.22
2022-10-28T19:21:19.838Z,17.24
2022-10-28T19:23:46.145Z,17.25
2022-10-28T19:26:12.854Z,17.27
2022-10-28T19:28:40.107Z,17.28
2022-10-28T19:31:11.256Z,17.30
2022-10-28T19:33:37.845Z,17.31
2022-10-28T19:36:05.493Z,17.32
2022-10-28T19:38:32.826Z,17.33
2022-10-28T19:41:05.972Z,17.33
2022-10-28T19:43:32.351Z,17.29
2022-10-28T19:46:02.620Z,17.25
2022-10-28T19:48:30.384Z,17.25
2022-10-28T19:50:56.953Z,17.22
2022-10-28T19:53:23.325Z,17.21
2022-10-28T19:55:49.786Z,17.19
2022-10-28T19:58:16.391Z,17.17
2022-10-28T20:00:42.710Z,17.16
2022-10-28T20:03:10.567Z,17.12
2022-10-28T20:05:38.225Z,17.08
2022-10-28T20:08:04.537Z,17.07
2022-10-28T20:10:31.004Z,17.07
2022-10-28T20:12:57.569Z,17.05
2022-10-28T20:15:24.024Z,17.06
2022-10-28T20:17:50.332Z,17.03
2022-10-28T20:20:16.644Z,16.97
2022-10-28T20:22:44.560Z,16.93
2022-10-28T20:25:10.896Z,16.87
2022-10-28T20:27:37.200Z,16.79
2022-10-28T20:30:03.790Z,16.71
2022-10-28T20:32:30.143Z,16.67
2022-10-28T20:34:56.993Z,16.65
2022-10-28T20:37:23.311Z,16.63
2022-10-28T20:39:53.687Z,16.62
2022-10-28T20:42:22.912Z,16.60
2022-10-28T20:44:50.327Z,16.58
2022-10-28T20:47:16.879Z,16.55
2022-10-28T20:49:43.915Z,16.52
2022-10-28T20:52:10.279Z,16.51
2022-10-28T20:54:36.580Z,16.47
2022-10-28T20:57:04.215Z,16.43
2022-10-28T20:59:30.532Z,16.35
2022-10-28T21:01:57.005Z,16.28
2022-10-28T21:04:23.674Z,16.20
2022-10-28T21:06:50.420Z,16.16
2022-10-28T21:09:16.761Z,16.12
2022-10-28T21:11:44.095Z,16.08
2022-10-28T21:14:12.639Z,16.07
2022-10-28T21:16:39.242Z,16.05
2022-10-28T21:19:06.610Z,16.06
2022-10-28T21:21:32.925Z,16.05
2022-10-28T21:23:59.393Z,16.05
2022-10-28T21:26:26.007Z,16.01
2022-10-28T21:28:52.802Z,15.93
2022-10-28T21:31:21.016Z,15.87
2022-10-28T21:36:20.680Z,15.80
2022-10-28T21:38:47.319Z,15.78
2022-10-28T21:41:16.707Z,15.73
2022-10-28T21:43:43.997Z,15.69
2022-10-28T21:46:10.716Z,15.59
2022-10-28T21:48:43.128Z,15.52
2022-10-28T21:51:14.386Z,15.50
2022-10-28T21:53:41.750Z,15.49
2022-10-28T21:56:11.109Z,15.50
2022-10-28T21:58:40.512Z,15.51
2022-10-28T22:01:08.112Z,15.48
2022-10-28T22:03:34.841Z,15.47
2022-10-28T22:06:02.587Z,15.47
2022-10-28T22:08:29.061Z,15.48
2022-10-28T22:10:59.132Z,15.48
2022-10-28T22:13:25.527Z,15.45
2022-10-28T22:15:55.877Z,15.41
2022-10-28T22:18:22.344Z,15.32
2022-10-28T22:20:48.649Z,15.32
2022-10-28T22:23:17.464Z,15.27
2022-10-28T22:25:48.110Z,15.29
2022-10-28T22:28:15.614Z,15.25
2022-10-28T22:30:42.194Z,15.24
2022-10-28T22:33:08.813Z,15.25
2022-10-28T22:35:35.159Z,15.27
2022-10-28T22:38:01.540Z,15.29
2022-10-28T22:40:28.928Z,15.31
2022-10-28T22:42:56.851Z,15.29
2022-10-28T22:45:23.280Z,15.26
2022-10-28T22:47:49.644Z,15.26
2022-10-28T22:50:16.025Z,15.25
2022-10-28T22:52:42.409Z,15.30
2022-10-28T22:55:09.257Z,15.25
2022-10-28T22:57:35.654Z,15.26
2022-10-28T23:00:03.655Z,15.24
2022-10-28T23:02:30.841Z,15.23
2022-10-28T23:04:57.780Z,15.24
2022-10-28T23:07:26.482Z,15.24
2022-10-28T23:09:53.073Z,15.25
2022-10-28T23:12:19.494Z,15.27
2022-10-28T23:14:47.311Z,15.29
2022-10-28T23:17:14.962Z,15.29
2022-10-28T23:19:41.415Z,15.28
2022-10-28T23:22:07.764Z,15.29
2022-10-28T23:24:34.099Z,15.29
2022-10-28T23:27:00.462Z,15.33
2022-10-28T23:29:28.868Z,15.35
2022-10-28T23:31:55.445Z,15.35
2022-10-28T23:34:23.447Z,15.34
2022-10-28T23:36:49.772Z,15.32
2022-10-28T23:39:16.745Z,15.32
2022-10-28T23:41:43.169Z,15.31
2022-10-28T23:44:09.479Z,15.30
2022-10-28T23:46:37.516Z,15.28
2022-10-28T23:49:04.314Z,15.26
2022-10-28T23:51:32.360Z,15.25
2022-10-28T23:53:58.734Z,15.25
2022-10-28T23:56:25.094Z,15.26
2022-10-28T23:58:54.013Z,15.26
